Time;durP1;ratioP1;P1;durP2;ratioP2;P2;SDS_P1;SDS_P2;PMS_P1;PMS_P2;Temp;Humidity;BMP_temperature;BMP_pressure;BME280_temperature;BME280_humidity;BME280_pressure;Samples;Min_cycle;Max_cycle;Signal;HPM_P1;HPM_P2
2022/11/28 00:02:16;;;;;;;10.33;7.80;;;;;;;7.46;100.00;100180.41;5111632;28;20309;-60
2022/11/28 00:04:42;;;;;;;11.20;8.93;;;;;;;7.52;100.00;100175.22;5111565;28;20194;-60
2022/11/28 00:07:11;;;;;;;11.63;8.60;;;;;;;7.51;100.00;100168.34;5111885;27;20580;-59
2022/11/28 00:09:38;;;;;;;12.43;9.13;;;;;;;7.40;100.00;100159.78;5111951;28;20194;-60
2022/11/28 00:12:05;;;;;;;13.87;8.83;;;;;;;7.36;100.00;100163.25;5111649;28;20590;-60
2022/11/28 00:14:32;;;;;;;10.67;8.87;;;;;;;7.35;100.00;100158.94;5111569;28;20195;-60
2022/11/28 00:16:59;;;;;;;12.63;9.27;;;;;;;7.25;100.00;100156.41;5111426;28;20293;-59
2022/11/28 00:19:27;;;;;;;12.57;9.40;;;;;;;7.37;100.00;100154.63;5111210;28;20262;-53
2022/11/28 00:21:56;;;;;;;11.33;8.83;;;;;;;7.48;100.00;100160.59;5111263;28;20340;-53
2022/11/28 00:24:25;;;;;;;13.37;9.20;;;;;;;7.49;100.00;100154.56;5111280;28;20194;-54
2022/11/28 00:26:51;;;;;;;12.37;9.23;;;;;;;7.56;100.00;100153.69;5111215;28;20206;-54
2022/11/28 00:29:18;;;;;;;12.10;9.00;;;;;;;7.51;100.00;100147.66;5111526;28;20604;-55
2022/11/28 00:31:45;;;;;;;12.97;9.70;;;;;;;7.62;100.00;100151.03;5111131;28;20230;-53
2022/11/28 00:34:14;;;;;;;13.90;9.43;;;;;;;7.55;100.00;100155.41;5111577;28;20217;-61
2022/11/28 00:36:44;;;;;;;13.83;9.77;;;;;;;7.56;100.00;100161.44;5111343;28;20201;-54
2022/11/28 00:39:11;;;;;;;15.47;10.63;;;;;;;7.53;100.00;100156.28;5111374;28;20198;-53
2022/11/28 00:41:37;;;;;;;13.37;9.50;;;;;;;7.58;100.00;100150.19;5111172;28;20725;-53
2022/11/28 00:44:04;;;;;;;13.67;9.50;;;;;;;7.65;100.00;100153.63;5110828;28;20331;-60
2022/11/28 00:46:31;;;;;;;13.20;10.40;;;;;;;7.71;100.00;100150.13;5110856;28;20230;-60
2022/11/28 00:48:59;;;;;;;12.93;9.77;;;;;;;7.67;100.00;100149.28;5110868;28;20738;-60
2022/11/28 00:51:27;;;;;;;14.30;9.60;;;;;;;7.67;100.00;100148.44;5111041;28;20726;-60
2022/11/28 00:53:58;;;;;;;14.00;9.90;;;;;;;7.63;100.00;100140.69;5110810;28;20281;-53
2022/11/28 00:56:26;;;;;;;11.40;9.30;;;;;;;7.63;100.00;100142.44;5110898;28;20602;-59
2022/11/28 00:58:53;;;;;;;13.73;10.27;;;;;;;7.58;100.00;100139.00;5110532;28;20583;-52
2022/11/28 01:01:22;;;;;;;12.40;9.20;;;;;;;7.56;100.00;100138.19;5110768;28;20281;-59
2022/11/28 01:03:50;;;;;;;11.77;9.17;;;;;;;7.52;100.00;100129.59;5110538;28;20720;-60
2022/11/28 01:06:22;;;;;;;14.87;8.93;;;;;;;7.47;100.00;100133.03;5110743;28;20191;-60
2022/11/28 01:08:48;;;;;;;14.47;9.93;;;;;;;7.41;100.00;100139.13;5110524;28;20209;-53
2022/11/28 01:11:17;;;;;;;9.73;8.33;;;;;;;7.45;100.00;100133.06;5110624;28;20191;-60
2022/11/28 01:13:44;;;;;;;12.03;8.30;;;;;;;7.35;100.00;100140.88;5110453;28;20191;-53
2022/11/28 01:16:11;;;;;;;11.73;9.03;;;;;;;7.41;100.00;100138.28;5110554;28;20239;-53
2022/11/28 01:18:38;;;;;;;12.37;8.50;;;;;;;7.40;100.00;100139.13;5110246;28;20230;-53
2022/11/28 01:21:07;;;;;;;12.53;8.63;;;;;;;7.45;100.00;100129.66;5110281;28;20194;-53
2022/11/28 01:23:34;;;;;;;11.37;9.10;;;;;;;7.54;100.00;100124.41;5110227;28;20218;-60
2022/11/28 01:26:01;;;;;;;11.93;8.33;;;;;;;7.44;100.00;100127.94;5110159;28;20198;-60
2022/11/28 01:28:29;;;;;;;14.47;9.10;;;;;;;7.32;100.00;100125.41;5110467;28;20681;-53
2022/11/28 01:30:56;;;;;;;12.70;9.40;;;;;;;7.38;100.00;100130.53;5110331;28;20194;-53
2022/11/28 01:33:23;;;;;;;10.77;8.50;;;;;;;7.15;100.00;100128.94;5105725;28;20572;-53
2022/11/28 01:35:58;;;;;;;11.97;8.87;;;;;;;7.16;100.00;100120.31;5089897;28;20744;-52
2022/11/28 01:38:25;;;;;;;11.20;8.23;;;;;;;7.18;100.00;100134.09;5089768;28;20202;-52
2022/11/28 01:40:53;;;;;;;11.37;8.33;;;;;;;7.19;100.00;100129.78;5089612;28;20198;-60
2022/11/28 01:43:20;;;;;;;12.43;8.73;;;;;;;7.20;100.00;100123.75;5089462;28;20223;-59
2022/11/28 01:45:48;;;;;;;10.70;8.40;;;;;;;7.19;100.00;100135.81;5089686;28;20196;-53
2022/11/28 01:48:20;;;;;;;10.30;7.60;;;;;;;7.10;100.00;100127.25;5089930;28;20206;-53
2022/11/28 01:50:49;;;;;;;11.43;8.67;;;;;;;7.11;100.00;100121.22;5089635;28;20199;-53
2022/11/28 01:53:17;;;;;;;10.37;8.20;;;;;;;6.96;100.00;100110.97;5089592;28;20191;-53
2022/11/28 01:55:49;;;;;;;9.57;7.90;;;;;;;6.93;100.00;100117.00;5089910;28;20632;-59
2022/11/28 01:58:16;;;;;;;8.47;7.63;;;;;;;6.91;100.00;100110.97;5089913;28;20682;-59
2022/11/28 02:00:43;;;;;;;9.73;8.30;;;;;;;7.05;100.00;100110.91;5089969;28;20195;-53
2022/11/28 02:03:15;;;;;;;11.80;8.30;;;;;;;7.00;100.00;100107.53;5093566;28;20229;-53
2022/11/28 02:05:42;;;;;;;11.13;7.80;;;;;;;7.00;100.00;100108.34;5093561;28;20195;-53
2022/11/28 02:08:10;;;;;;;10.90;8.37;;;;;;;6.96;100.00;100104.09;5093734;28;20281;-53
2022/11/28 02:10:49;;;;;;;9.70;7.87;;;;;;;6.89;100.00;100104.97;5093599;28;20283;-53
2022/11/28 02:13:29;;;;;;;9.63;7.90;;;;;;;6.90;100.00;100104.97;5093750;28;20240;-53
2022/11/28 02:16:18;;;;;;;10.40;8.63;;;;;;;6.94;100.00;100098.06;5093475;28;20555;-52
2022/11/28 02:18:59;;;;;;;10.30;8.30;;;;;;;6.98;100.00;100098.94;5092283;28;20232;-52
2022/11/28 02:21:55;;;;;;;10.30;7.70;;;;;;;6.92;100.00;100089.47;5093470;28;20196;-53
2022/11/28 02:24:50;;;;;;;10.10;8.57;;;;;;;6.94;100.00;100090.34;5093047;28;20581;-53
2022/11/28 02:27:37;;;;;;;13.67;9.07;;;;;;;6.89;100.00;100089.47;5093662;28;20191;-53
2022/11/28 02:30:10;;;;;;;11.83;8.70;;;;;;;6.92;100.00;100090.34;5093761;28;20209;-53
2022/11/28 02:32:56;;;;;;;10.20;8.27;;;;;;;6.97;100.00;100092.03;5093452;28;20195;-53
2022/11/28 02:35:33;;;;;;;11.03;8.13;;;;;;;6.88;100.00;100093.78;5093122;28;20286;-53
2022/11/28 02:38:06;;;;;;;10.60;8.40;;;;;;;6.70;100.00;100082.69;5092953;28;20285;-53
2022/11/28 02:40:38;;;;;;;12.93;8.90;;;;;;;6.66;100.00;100081.00;5093297;28;20191;-52
2022/11/28 02:43:15;;;;;;;12.73;9.50;;;;;;;6.69;100.00;100088.72;5092785;28;20229;-52
2022/11/28 02:45:50;;;;;;;12.83;9.40;;;;;;;6.66;100.00;100092.16;5093262;28;20663;-54
2022/11/28 02:48:26;;;;;;;10.20;8.47;;;;;;;6.53;100.00;100096.53;5092966;28;20197;-53
2022/11/28 02:51:01;;;;;;;15.30;9.63;;;;;;;6.51;100.00;100087.06;5092941;28;20582;-60
2022/11/28 02:53:30;;;;;;;12.80;10.40;;;;;;;6.53;100.00;100088.78;5092757;28;20190;-52
2022/11/28 02:55:58;;;;;;;13.57;9.93;;;;;;;6.44;100.00;100091.38;5092929;28;20687;-53
2022/11/28 02:58:25;;;;;;;11.47;9.43;;;;;;;6.45;100.00;100098.25;5092952;28;20191;-53
2022/11/28 03:00:53;;;;;;;15.83;10.07;;;;;;;6.56;100.00;100095.63;5092853;28;20290;-52
2022/11/28 03:03:56;;;;;;;11.13;9.07;;;;;;;6.67;100.00;100096.44;5092638;28;20219;-52
2022/11/28 03:06:33;;;;;;;12.17;8.60;;;;;;;6.57;100.00;100098.22;5075255;28;20198;-53
2022/11/28 03:09:14;;;;;;;14.73;10.03;;;;;;;6.59;100.00;100094.78;5092499;28;20766;-52
2022/11/28 03:11:49;;;;;;;10.87;8.83;;;;;;;6.38;100.00;100093.13;5092580;28;20226;-52
2022/11/28 03:14:28;;;;;;;12.37;9.20;;;;;;;6.36;100.00;100094.84;5092873;28;20284;-52
2022/11/28 03:17:07;;;;;;;13.73;9.37;;;;;;;6.46;100.00;100097.38;5092447;28;20206;-52
2022/11/28 03:19:39;;;;;;;12.07;9.23;;;;;;;6.53;100.00;100091.38;5092282;28;20605;-53
2022/11/28 03:22:13;;;;;;;11.80;9.20;;;;;;;6.46;100.00;100097.38;5092387;28;20203;-53
2022/11/28 03:24:46;;;;;;;11.63;8.90;;;;;;;6.45;100.00;100090.50;5092095;28;20710;-54
2022/11/28 03:27:19;;;;;;;11.87;9.50;;;;;;;6.33;100.00;100093.13;5092144;28;20570;-54
2022/11/28 03:29:51;;;;;;;13.53;10.30;;;;;;;6.45;100.00;100097.38;5092363;28;20563;-53
2022/11/28 03:32:23;;;;;;;14.77;10.30;;;;;;;6.44;100.00;100088.78;5092009;28;20924;-54
2022/11/28 03:34:57;;;;;;;11.73;9.13;;;;;;;6.45;100.00;100093.09;5091961;28;20295;-54
2022/11/28 03:37:27;;;;;;;13.33;9.67;;;;;;;6.50;100.00;100091.38;5091940;28;20671;-53
2022/11/28 03:40:02;;;;;;;13.30;9.83;;;;;;;6.48;100.00;100090.50;5092412;28;20196;-53
2022/11/28 03:42:32;;;;;;;14.00;10.17;;;;;;;6.53;100.00;100101.69;5092014;28;20285;-53
2022/11/28 03:45:06;;;;;;;13.57;9.33;;;;;;;6.41;100.00;100096.56;5091719;28;20197;-60
2022/11/28 03:47:37;;;;;;;12.77;8.83;;;;;;;6.49;100.00;100094.81;5092037;28;20252;-54
2022/11/28 03:50:09;;;;;;;9.33;8.13;;;;;;;6.56;100.00;100093.91;5091642;28;20195;-54
2022/11/28 03:52:40;;;;;;;16.40;9.33;;;;;;;6.53;100.00;100095.66;5091925;28;20199;-54
2022/11/28 03:55:12;;;;;;;11.17;8.07;;;;;;;6.56;100.00;100099.06;5091737;28;20561;-54
2022/11/28 03:57:45;;;;;;;14.27;9.20;;;;;;;6.44;100.00;100085.34;5091538;28;20210;-59
2022/11/28 04:00:13;;;;;;;13.40;9.33;;;;;;;6.44;100.00;100095.66;5091356;28;20766;-59
2022/11/28 04:02:48;;;;;;;12.43;8.83;;;;;;;6.39;100.00;100097.41;5091379;28;20203;-54
2022/11/28 04:05:22;;;;;;;12.20;8.90;;;;;;;6.44;100.00;100098.25;5091650;28;20194;-53
2022/11/28 04:07:57;;;;;;;11.10;8.30;;;;;;;6.46;100.00;100105.13;5091573;28;20201;-54
2022/11/28 04:10:32;;;;;;;13.60;8.87;;;;;;;6.52;100.00;100099.97;5091600;28;20221;-53
2022/11/28 04:13:03;;;;;;;13.13;9.17;;;;;;;6.60;100.00;100099.06;5091188;28;20702;-53
2022/11/28 04:15:37;;;;;;;13.50;9.57;;;;;;;6.56;100.00;100103.38;5090876;28;20628;-59
2022/11/28 04:18:10;;;;;;;15.57;9.23;;;;;;;6.47;100.00;100104.25;5091367;28;20227;-60
2022/11/28 04:20:45;;;;;;;13.73;9.40;;;;;;;6.38;100.00;100100.84;5109891;28;20208;-59
2022/11/28 04:23:15;;;;;;;13.53;9.97;;;;;;;6.62;100.00;100112.81;5110220;28;20251;-60
2022/11/28 04:25:55;;;;;;;14.20;9.87;;;;;;;6.54;100.00;100116.31;5110980;28;20229;-59
2022/11/28 04:28:25;;;;;;;13.77;10.03;;;;;;;6.46;100.00;100112.88;5110694;28;20273;-59
2022/11/28 04:30:56;;;;;;;13.93;10.00;;;;;;;6.32;100.00;100099.13;5109394;28;20209;-59
2022/11/28 04:33:25;;;;;;;13.37;9.43;;;;;;;6.30;100.00;100116.34;5104207;28;20199;-53
2022/11/28 04:35:56;;;;;;;17.30;11.70;;;;;;;6.35;100.00;100121.47;5106772;28;20198;-54
2022/11/28 04:38:26;;;;;;;21.60;14.47;;;;;;;6.47;100.00;100124.91;5108442;28;20187;-53
2022/11/28 04:40:56;;;;;;;17.30;10.57;;;;;;;6.35;100.00;100121.47;5108943;28;20186;-53
2022/11/28 04:43:30;;;;;;;9.57;7.80;;;;;;;6.38;100.00;100122.34;5108662;28;20220;-52
2022/11/28 04:46:02;;;;;;;9.30;7.40;;;;;;;6.33;100.00;100121.47;5105726;27;20199;-53
2022/11/28 04:48:29;;;;;;;12.77;8.33;;;;;;;6.47;100.00;100121.47;5113998;27;20665;-53
2022/11/28 04:51:06;;;;;;;11.33;8.63;;;;;;;6.45;100.00;100126.63;5109355;28;20233;-53
2022/11/28 04:53:40;;;;;;;13.97;9.07;;;;;;;6.32;100.00;100121.50;5107285;28;20684;-56
2022/11/28 04:56:12;;;;;;;12.40;8.87;;;;;;;6.36;100.00;100129.22;5107026;28;21256;-60
2022/11/28 04:58:43;;;;;;;12.27;8.17;;;;;;;6.30;100.00;100126.66;5106665;28;20187;-60
2022/11/28 05:01:19;;;;;;;11.27;9.27;;;;;;;6.31;100.00;100125.81;5105945;28;20289;-60
2022/11/28 05:03:46;;;;;;;9.80;7.60;;;;;;;6.23;100.00;100119.78;5111095;27;20209;-60
2022/11/28 05:06:24;;;;;;;9.87;7.67;;;;;;;6.32;100.00;100122.34;5111722;27;20190;-59
2022/11/28 05:08:51;;;;;;;9.03;8.03;;;;;;;6.35;100.00;100132.66;5119192;27;20195;-60
2022/11/28 05:11:18;;;;;;;11.87;8.40;;;;;;;6.35;100.00;100129.22;5117196;27;20219;-60
2022/11/28 05:13:45;;;;;;;10.87;8.33;;;;;;;6.21;100.00;100098.31;5110481;28;20206;-59
2022/11/28 05:16:12;;;;;;;10.40;8.80;;;;;;;6.37;100.00;100124.94;5110307;28;20209;-60
2022/11/28 05:18:39;;;;;;;12.23;8.97;;;;;;;6.39;100.00;100118.91;5110128;28;20475;-60
2022/11/28 05:21:08;;;;;;;12.47;8.67;;;;;;;6.47;100.00;100124.91;5109560;28;20210;-59
2022/11/28 05:23:37;;;;;;;12.57;8.77;;;;;;;6.36;100.00;100126.63;5110058;28;20237;-56
2022/11/28 05:26:07;;;;;;;15.27;10.20;;;;;;;6.28;100.00;100120.66;5109896;28;20293;-55
2022/11/28 05:28:35;;;;;;;14.57;9.53;;;;;;;6.16;100.00;100118.94;5110308;28;20202;-58
2022/11/28 05:31:02;;;;;;;14.53;9.60;;;;;;;6.23;100.00;100119.78;5110114;28;20190;-58
2022/11/28 05:33:30;;;;;;;13.50;10.10;;;;;;;6.19;100.00;100116.38;5109739;28;20193;-57
2022/11/28 05:35:57;;;;;;;16.47;10.50;;;;;;;6.30;100.00;100121.50;5108105;28;20190;-56
2022/11/28 05:38:24;;;;;;;13.83;10.53;;;;;;;6.36;100.00;100123.19;5109994;28;20202;-57
2022/11/28 05:40:52;;;;;;;13.70;10.13;;;;;;;6.38;100.00;100124.94;5108570;28;20201;-57
2022/11/28 05:43:19;;;;;;;12.60;10.10;;;;;;;6.37;100.00;100118.03;5110276;28;20642;-57
2022/11/28 05:45:46;;;;;;;15.23;11.67;;;;;;;6.26;100.00;100119.78;5109948;28;20194;-57
2022/11/28 05:48:13;;;;;;;17.83;11.53;;;;;;;6.35;100.00;100122.34;5109834;28;20195;-56
2022/11/28 05:50:41;;;;;;;18.33;11.90;;;;;;;6.38;100.00;100124.06;5109844;28;20205;-56
2022/11/28 05:53:08;;;;;;;16.90;11.87;;;;;;;6.33;100.00;100124.06;5110108;28;20216;-58
2022/11/28 05:55:38;;;;;;;17.13;11.80;;;;;;;6.36;100.00;100116.31;5109908;28;20285;-61
2022/11/28 05:58:07;;;;;;;14.80;11.37;;;;;;;6.38;100.00;100122.34;5110154;28;20658;-57
2022/11/28 06:00:33;;;;;;;15.40;11.33;;;;;;;6.45;100.00;100121.47;5109935;28;20194;-57
2022/11/28 06:03:00;;;;;;;19.33;13.00;;;;;;;6.44;100.00;100121.47;5109958;28;20209;-56
2022/11/28 06:05:28;;;;;;;16.57;11.27;;;;;;;6.56;100.00;100126.59;5107314;28;20627;-56
2022/11/28 06:07:54;;;;;;;18.27;12.87;;;;;;;6.54;100.00;100124.03;5089345;28;20199;-56
2022/11/28 06:10:21;;;;;;;17.40;12.00;;;;;;;6.51;100.00;100112.88;5089403;28;20196;-57
2022/11/28 06:12:49;;;;;;;13.03;9.50;;;;;;;6.62;100.00;100128.31;5089622;28;20199;-57
2022/11/28 06:15:17;;;;;;;11.40;8.87;;;;;;;6.61;100.00;100134.31;5090015;28;20654;-60
2022/11/28 06:17:44;;;;;;;14.90;10.00;;;;;;;6.60;100.00;100140.34;5089921;28;20747;-59
2022/11/28 06:20:11;;;;;;;12.77;9.83;;;;;;;6.47;100.00;100136.94;5089405;28;20239;-60
2022/11/28 06:22:38;;;;;;;13.10;9.83;;;;;;;6.45;100.00;100134.34;5090196;28;20202;-59
2022/11/28 06:25:05;;;;;;;12.87;9.50;;;;;;;6.58;100.00;100142.91;5089723;28;20223;-60
2022/11/28 06:27:34;;;;;;;12.60;10.23;;;;;;;6.53;100.00;100135.22;5090067;28;20195;-60
2022/11/28 06:30:01;;;;;;;16.73;10.57;;;;;;;6.46;100.00;100130.91;5089494;28;20196;-56
2022/11/28 06:32:29;;;;;;;14.20;9.97;;;;;;;6.53;100.00;100135.22;5089107;28;20615;-56
2022/11/28 06:34:56;;;;;;;15.07;10.27;;;;;;;6.56;100.00;100130.03;5089438;28;20671;-59
2022/11/28 06:37:23;;;;;;;15.67;10.63;;;;;;;6.55;100.00;100136.03;5089282;28;20286;-56
2022/11/28 06:39:51;;;;;;;16.83;11.00;;;;;;;6.62;100.00;100130.88;5089266;28;20648;-56
2022/11/28 06:42:18;;;;;;;14.63;10.57;;;;;;;6.59;100.00;100130.88;5101332;28;20194;-56
2022/11/28 06:44:45;;;;;;;16.77;10.87;;;;;;;6.63;100.00;100136.03;5089013;28;20223;-56
2022/11/28 06:47:12;;;;;;;16.43;10.83;;;;;;;6.70;100.00;100139.44;5088832;28;20227;-56
2022/11/28 06:49:40;;;;;;;15.80;10.63;;;;;;;6.74;100.00;100139.44;5092737;28;20223;-59
2022/11/28 06:52:07;;;;;;;14.60;10.67;;;;;;;6.72;100.00;100135.16;5092820;28;20218;-59
2022/11/28 06:54:34;;;;;;;15.70;11.23;;;;;;;6.72;100.00;100132.56;5092680;28;20225;-56
2022/11/28 06:57:01;;;;;;;20.07;10.77;;;;;;;6.73;100.00;100140.31;5103925;28;20692;-57
2022/11/28 06:59:28;;;;;;;14.77;10.23;;;;;;;6.72;100.00;100135.16;5111888;28;20202;-55
2022/11/28 07:01:56;;;;;;;14.23;10.00;;;;;;;6.75;100.00;100132.56;5112329;28;20224;-56
2022/11/28 07:04:23;;;;;;;15.43;10.73;;;;;;;6.78;100.00;100135.13;5113058;28;20698;-57
2022/11/28 07:06:51;;;;;;;15.73;10.33;;;;;;;6.68;100.00;100133.44;5112777;28;20194;-57
2022/11/28 07:09:18;;;;;;;14.60;10.87;;;;;;;6.59;100.00;100131.75;5112786;28;20205;-56
2022/11/28 07:11:45;;;;;;;16.90;11.37;;;;;;;6.59;100.00;100130.88;5112914;28;20281;-57
2022/11/28 07:14:12;;;;;;;16.90;11.53;;;;;;;6.61;100.00;100140.34;5112479;28;20651;-56
2022/11/28 07:16:39;;;;;;;16.03;11.63;;;;;;;6.51;100.00;100130.91;5112895;28;20222;-57
2022/11/28 07:19:06;;;;;;;18.77;11.23;;;;;;;6.45;100.00;100129.19;5112523;28;20236;-57
2022/11/28 07:21:33;;;;;;;16.87;11.17;;;;;;;6.35;100.00;100122.34;5112743;28;20273;-56
2022/11/28 07:24:01;;;;;;;15.63;11.07;;;;;;;6.36;100.00;100121.47;5112417;28;20221;-56
2022/11/28 07:26:29;;;;;;;22.77;14.30;;;;;;;6.27;100.00;100108.63;5112491;28;20282;-57
2022/11/28 07:28:57;;;;;;;18.13;13.47;;;;;;;6.29;100.00;100126.66;5112616;28;20198;-56
2022/11/28 07:31:25;;;;;;;21.90;13.97;;;;;;;6.14;100.00;100120.66;5112268;28;20202;-56
2022/11/28 07:33:52;;;;;;;15.13;11.20;;;;;;;6.14;100.00;100122.38;5112148;28;20204;-57
2022/11/28 07:36:21;;;;;;;14.03;10.17;;;;;;;6.14;100.00;100123.25;5112402;28;20252;-57
2022/11/28 07:38:48;;;;;;;11.73;10.27;;;;;;;6.08;100.00;100117.25;5112254;28;20199;-56
2022/11/28 07:41:17;;;;;;;15.13;10.30;;;;;;;5.99;100.00;100112.06;5112000;28;20573;-57
2022/11/28 07:43:46;;;;;;;15.90;9.90;;;;;;;5.99;100.00;100122.38;5112384;28;20705;-60
2022/11/28 07:46:15;;;;;;;13.63;10.10;;;;;;;6.03;100.00;100124.09;5112412;28;20680;-60
2022/11/28 07:48:42;;;;;;;13.00;9.50;;;;;;;5.99;100.00;100122.38;5112265;28;20297;-60
2022/11/28 07:51:11;;;;;;;14.43;10.30;;;;;;;5.99;100.00;100115.50;5112536;28;20642;-61
2022/11/28 07:53:39;;;;;;;12.63;9.73;;;;;;;6.02;100.00;100114.66;5112447;28;20194;-63
2022/11/28 07:56:08;;;;;;;13.13;9.53;;;;;;;6.05;100.00;100118.09;5112033;28;20220;-59
2022/11/28 07:58:37;;;;;;;13.07;9.17;;;;;;;6.16;100.00;100110.34;5111438;28;20305;-64
2022/11/28 08:01:09;;;;;;;13.00;9.90;;;;;;;6.09;100.00;100111.25;5111926;28;20203;-61
2022/11/28 08:03:36;;;;;;;14.37;11.37;;;;;;;6.11;100.00;100107.78;5111929;28;20586;-57
2022/11/28 08:06:03;;;;;;;12.67;10.10;;;;;;;6.24;100.00;100118.94;5112043;27;20229;-63
2022/11/28 08:08:31;;;;;;;11.90;8.70;;;;;;;6.30;100.00;100112.91;5111724;28;20195;-62
2022/11/28 08:10:58;;;;;;;16.23;11.17;;;;;;;6.26;100.00;100111.19;5111630;28;20198;-59
2022/11/28 08:13:25;;;;;;;30.47;21.83;;;;;;;6.24;100.00;100105.19;5111663;27;20230;-56
2022/11/28 08:15:53;;;;;;;14.63;11.40;;;;;;;6.20;100.00;100112.09;5111432;28;20201;-57
2022/11/28 08:18:20;;;;;;;14.43;10.50;;;;;;;6.24;100.00;100103.47;5111240;28;20226;-57
2022/11/28 08:20:47;;;;;;;14.03;10.63;;;;;;;6.29;100.00;100101.75;5111321;28;20198;-57
2022/11/28 08:23:14;;;;;;;12.60;9.83;;;;;;;6.31;100.00;100101.75;5111514;28;20648;-56
2022/11/28 08:25:41;;;;;;;24.90;20.93;;;;;;;6.30;100.00;100100.88;5111474;28;20605;-58
2022/11/28 08:28:08;;;;;;;16.07;10.50;;;;;;;6.36;100.00;100102.56;5111135;27;20204;-56
2022/11/28 08:30:35;;;;;;;13.50;10.50;;;;;;;6.53;100.00;100104.25;5111279;28;20198;-56
2022/11/28 08:33:03;;;;;;;12.50;10.20;;;;;;;6.55;100.00;100105.09;5111186;28;20249;-59
2022/11/28 08:35:30;;;;;;;18.43;11.70;;;;;;;6.61;100.00;100104.22;5111182;28;20607;-59
2022/11/28 08:37:57;;;;;;;15.87;9.77;;;;;;;6.58;100.00;100096.50;5110985;28;20280;-59
2022/11/28 08:40:24;;;;;;;16.33;10.70;;;;;;;6.67;100.00;100113.66;5110929;28;20205;-60
2022/11/28 08:42:51;;;;;;;11.27;9.73;;;;;;;6.68;100.00;100105.91;5111077;28;20648;-61
2022/11/28 08:45:18;;;;;;;12.23;9.83;;;;;;;6.57;100.00;100103.38;5110863;28;20283;-60
2022/11/28 08:47:45;;;;;;;13.57;10.77;;;;;;;6.64;100.00;100103.38;5110995;28;20220;-61
2022/11/28 08:50:13;;;;;;;14.50;10.33;;;;;;;6.70;100.00;100098.16;5110861;28;20209;-60
2022/11/28 08:52:40;;;;;;;16.63;12.00;;;;;;;6.78;100.00;100099.84;5111288;28;20191;-60
2022/11/28 08:55:08;;;;;;;11.37;8.80;;;;;;;6.75;100.00;100097.31;5110808;28;20217;-60
2022/11/28 08:57:35;;;;;;;10.37;9.13;;;;;;;6.82;100.00;100092.97;5110864;28;20696;-60
2022/11/28 09:00:02;;;;;;;15.20;10.63;;;;;;;6.86;100.00;100084.34;5093859;28;20238;-60
2022/11/28 09:02:29;;;;;;;23.83;17.23;;;;;;;6.99;100.00;100093.75;5090242;28;20259;-60
2022/11/28 09:04:56;;;;;;;27.90;15.37;;;;;;;7.02;100.00;100091.13;5090236;28;20314;-60
2022/11/28 09:07:24;;;;;;;15.90;10.23;;;;;;;6.88;100.00;100083.47;5090194;28;20203;-61
2022/11/28 09:09:51;;;;;;;22.47;14.90;;;;;;;6.95;100.00;100078.28;5089870;28;20198;-60
2022/11/28 09:12:18;;;;;;;16.97;10.33;;;;;;;6.99;100.00;100075.69;5089804;28;20245;-58
2022/11/28 09:14:45;;;;;;;13.57;10.63;;;;;;;6.99;100.00;100067.94;5089914;28;20197;-57
2022/11/28 09:17:14;;;;;;;15.60;10.30;;;;;;;6.95;100.00;100062.81;5089830;28;20210;-57
2022/11/28 09:19:41;;;;;;;12.10;9.67;;;;;;;6.85;100.00;100057.69;5089631;28;20239;-57
2022/11/28 09:22:08;;;;;;;10.93;9.70;;;;;;;6.82;100.00;100068.03;5106356;28;20199;-58
2022/11/28 09:24:37;;;;;;;11.33;9.37;;;;;;;6.93;100.00;100070.53;5109666;28;20249;-56
2022/11/28 09:27:04;;;;;;;10.90;9.13;;;;;;;6.91;100.00;100067.13;5095631;28;20223;-60
2022/11/28 09:29:31;;;;;;;11.37;9.57;;;;;;;6.93;100.00;100060.22;5088892;28;20218;-59
2022/11/28 09:31:58;;;;;;;13.10;10.07;;;;;;;7.01;100.00;100060.16;5101169;28;20271;-60
2022/11/28 09:34:25;;;;;;;11.43;10.10;;;;;;;7.00;100.00;100061.91;5110008;28;20696;-59
2022/11/28 09:36:51;;;;;;;10.97;9.80;;;;;;;6.96;100.00;100049.91;5106868;28;20227;-60
2022/11/28 09:39:18;;;;;;;13.17;10.93;;;;;;;6.87;100.00;100044.78;5109517;27;20221;-57
2022/11/28 09:42:03;;;;;;;19.47;16.27;;;;;;;6.86;100.00;100048.22;5109991;28;20301;-60
2022/11/28 09:44:38;;;;;;;18.80;15.17;;;;;;;6.90;100.00;100034.44;5109113;28;20222;-57
2022/11/28 09:47:10;;;;;;;17.43;13.73;;;;;;;6.96;100.00;100034.41;5110004;28;20197;-61
2022/11/28 09:49:44;;;;;;;11.27;10.07;;;;;;;6.97;100.00;100024.94;5099606;27;20215;-60
2022/11/28 09:52:23;;;;;;;14.13;10.90;;;;;;;6.87;100.00;100013.81;5089650;28;20221;-57
2022/11/28 09:54:57;;;;;;;15.33;11.10;;;;;;;7.00;100.00;100020.59;5089021;28;20219;-56
2022/11/28 09:57:33;;;;;;;14.77;12.07;;;;;;;7.15;100.00;100023.09;5089365;28;20236;-57
2022/11/28 10:00:00;;;;;;;12.10;9.90;;;;;;;7.12;100.00;100017.94;5088679;28;20284;-56
2022/11/28 10:02:33;;;;;;;10.87;9.77;;;;;;;6.99;100.00;100018.91;5094285;28;20331;-56
2022/11/28 10:05:11;;;;;;;11.97;9.57;;;;;;;7.05;100.00;100012.84;5107743;28;20302;-57
2022/11/28 10:07:49;;;;;;;11.47;9.23;;;;;;;7.05;100.00;100013.69;5108825;28;20194;-56
2022/11/28 10:10:25;;;;;;;10.13;9.13;;;;;;;7.02;100.00;100011.13;5109681;28;20205;-58
2022/11/28 10:13:01;;;;;;;11.70;10.00;;;;;;;7.06;100.00;100015.41;5109650;28;20194;-56
2022/11/28 10:15:40;;;;;;;15.30;11.40;;;;;;;7.08;100.00;100012.81;5109590;28;20187;-56
2022/11/28 10:18:33;;;;;;;11.00;9.83;;;;;;;7.30;100.00;100009.22;5109681;28;20989;-60
2022/11/28 10:21:04;;;;;;;12.10;10.10;;;;;;;7.44;100.00;100002.22;5108556;28;20199;-61
2022/11/28 10:23:37;;;;;;;11.30;10.07;;;;;;;7.44;100.00;99993.63;5112173;28;20197;-61
2022/11/28 10:26:08;;;;;;;10.03;8.77;;;;;;;7.60;100.00;99995.19;5113686;28;20218;-61
2022/11/28 10:28:40;;;;;;;9.30;8.40;;;;;;;7.65;100.00;99990.84;5113740;28;20190;-61
2022/11/28 10:31:12;;;;;;;11.13;9.43;;;;;;;7.67;100.00;100002.03;5107757;28;20193;-61
2022/11/28 10:33:43;;;;;;;10.37;9.30;;;;;;;7.75;100.00;99995.06;5113835;27;20585;-61
2022/11/28 10:36:20;;;;;;;11.10;10.03;;;;;;;7.66;100.00;99987.41;5113526;28;20282;-61
2022/11/28 10:38:47;;;;;;;11.43;10.23;;;;;;;7.61;100.00;99981.41;5114048;28;20559;-61
2022/11/28 10:41:20;;;;;;;11.43;10.20;;;;;;;7.64;100.00;99986.53;5113614;28;20195;-62
2022/11/28 10:43:58;;;;;;;10.23;9.20;;;;;;;7.51;100.00;99972.88;5113628;28;20202;-61
2022/11/28 10:46:40;;;;;;;20.90;15.43;;;;;;;7.56;100.00;99973.69;5113804;28;20705;-62
2022/11/28 10:49:24;;;;;;;53.33;35.47;;;;;;;7.54;100.00;99972.88;5113369;28;20220;-57
2022/11/28 10:52:01;;;;;;;20.70;16.03;;;;;;;7.61;100.00;99969.34;5113397;28;20198;-58
2022/11/28 10:54:53;;;;;;;25.77;18.17;;;;;;;7.69;100.00;99965.81;5113286;27;20194;-57
2022/11/28 10:57:24;;;;;;;11.13;10.00;;;;;;;7.78;100.00;99966.59;5113251;28;20205;-57
2022/11/28 11:00:01;;;;;;;11.47;9.53;;;;;;;7.74;100.00;99964.91;5113206;28;20543;-58
2022/11/28 11:02:36;;;;;;;10.97;9.87;;;;;;;7.71;100.00;99959.78;5112241;28;20285;-57
2022/11/28 11:05:04;;;;;;;11.00;9.93;;;;;;;7.73;100.00;99957.19;5110958;28;20619;-58
2022/11/28 11:07:33;;;;;;;12.50;9.50;;;;;;;7.74;100.00;99959.75;5112306;28;20607;-59
2022/11/28 11:10:13;;;;;;;11.73;10.23;;;;;;;7.69;100.00;99948.59;5110146;28;20202;-62
2022/11/28 11:12:40;;;;;;;10.90;9.50;;;;;;;7.67;100.00;99952.09;5109825;28;20194;-63
2022/11/28 11:15:31;;;;;;;11.30;10.00;;;;;;;7.57;100.00;99948.72;5112716;28;20595;-61
2022/11/28 11:18:01;;;;;;;9.80;8.90;;;;;;;7.59;100.00;99944.38;5109626;28;20669;-62
2022/11/28 11:20:45;;;;;;;11.00;9.90;;;;;;;7.62;100.00;99949.53;5111912;28;20203;-62
2022/11/28 11:23:16;;;;;;;15.77;10.20;;;;;;;7.67;100.00;99941.75;5110358;28;20605;-62
2022/11/28 11:25:53;;;;;;;11.93;10.63;;;;;;;7.74;100.00;99938.22;5112016;28;20222;-62
2022/11/28 11:28:32;;;;;;;11.20;10.10;;;;;;;7.79;100.00;99932.13;5111911;28;20210;-61
2022/11/28 11:31:02;;;;;;;11.23;10.10;;;;;;;7.81;100.00;99940.72;5092488;28;20195;-64